Time;durP1;ratioP1;P1;durP2;ratioP2;P2;SDS_P1;SDS_P2;PMS_P1;PMS_P2;Temp;Humidity;BMP_temperature;BMP_pressure;BME280_temperature;BME280_humidity;BME280_pressure;Samples;Min_cycle;Max_cycle;Signal;HPM_P1;HPM_P2
2022/03/12 00:02:09;;;;;;;24.55;13.70;;;;;;;-142.75;89.87;77310.50;5031598;28;20021;-67
2022/03/12 00:04:34;;;;;;;24.50;14.10;;;;;;;-142.75;88.79;77308.53;5033063;28;20039;-67
2022/03/12 00:07:00;;;;;;;25.17;12.97;;;;;;;-142.75;87.53;77314.44;5033020;28;20045;-67
2022/03/12 00:09:26;;;;;;;23.67;12.88;;;;;;;-142.75;87.43;77310.50;5031651;28;20438;-68
2022/03/12 00:11:55;;;;;;;21.95;12.85;;;;;;;-142.75;88.39;77312.47;5032832;28;20025;-67
2022/03/12 00:14:21;;;;;;;25.13;12.88;;;;;;;-142.75;90.20;77316.41;5032951;28;20025;-68
2022/03/12 00:16:48;;;;;;;23.58;13.35;;;;;;;-142.75;89.18;77316.41;5032894;28;20025;-67
2022/03/12 00:19:13;;;;;;;22.03;13.17;;;;;;;-142.75;90.53;77322.31;5032418;28;20471;-68
2022/03/12 00:21:43;;;;;;;26.98;14.27;;;;;;;-142.75;90.79;77322.31;5032845;28;20025;-68
2022/03/12 00:24:11;;;;;;;24.77;13.90;;;;;;;-142.75;92.50;77334.13;5031403;28;20029;-68
2022/03/12 00:26:40;;;;;;;24.47;13.37;;;;;;;-142.75;94.78;77349.88;5031269;28;20025;-68
2022/03/12 00:29:14;;;;;;;28.17;13.33;;;;;;;-142.75;97.75;77357.75;5032281;28;20026;-68
2022/03/12 00:31:41;;;;;;;26.87;14.03;;;;;;;-142.75;97.39;77359.72;5032437;28;20025;-68
2022/03/12 00:34:06;;;;;;;24.03;13.97;;;;;;;-142.75;99.59;77371.53;5031207;28;20033;-68
2022/03/12 00:36:32;;;;;;;26.52;14.20;;;;;;;-142.75;100.00;77377.44;5032498;28;20035;-69
2022/03/12 00:38:57;;;;;;;24.40;14.40;;;;;;;-142.75;100.00;77383.34;5032095;28;20056;-68
2022/03/12 00:41:23;;;;;;;22.33;13.30;;;;;;;-142.75;100.00;77373.50;5029635;28;20104;-68
2022/03/12 00:43:48;;;;;;;24.63;13.77;;;;;;;-142.75;100.00;77365.63;5032411;28;20280;-68
2022/03/12 00:46:14;;;;;;;20.95;12.45;;;;;;;-142.75;100.00;77363.66;5032013;28;20029;-67
2022/03/12 00:48:40;;;;;;;23.38;13.43;;;;;;;-142.75;100.00;77365.63;5030690;28;20037;-68
2022/03/12 00:51:09;;;;;;;;;;;;;;;-142.75;100.00;77343.97;5031204;28;20026;-68
2022/03/12 00:53:36;;;;;;;21.10;11.57;;;;;;;-142.75;100.00;77347.91;5032033;28;20298;-69
2022/03/12 00:56:03;;;;;;;28.07;13.43;;;;;;;-142.75;100.00;77343.97;5030837;28;20390;-68
2022/03/12 00:58:28;;;;;;;23.70;12.70;;;;;;;-142.75;100.00;77351.84;5031677;28;20107;-69
2022/03/12 01:00:53;;;;;;;23.40;13.30;;;;;;;-142.75;100.00;77353.81;5030692;28;20045;-68
2022/03/12 01:03:19;;;;;;;22.40;12.43;;;;;;;-142.75;100.00;77357.75;5032062;28;20120;-68
2022/03/12 01:05:50;;;;;;;20.92;12.93;;;;;;;-142.75;100.00;77353.81;5031863;28;20056;-68
2022/03/12 01:08:17;;;;;;;22.57;13.50;;;;;;;-142.75;100.00;77351.84;5031429;28;20095;-69
2022/03/12 01:10:44;;;;;;;18.30;10.73;;;;;;;-142.75;100.00;77342.00;5031537;28;20392;-67
2022/03/12 01:13:10;;;;;;;18.57;11.07;;;;;;;-142.75;100.00;77345.94;5031067;28;20535;-68
2022/03/12 01:15:36;;;;;;;19.97;11.57;;;;;;;-142.75;100.00;77349.88;5031618;28;20407;-68
2022/03/12 01:18:02;;;;;;;18.30;11.38;;;;;;;-142.75;100.00;77334.13;5031405;28;20029;-68
2022/03/12 01:20:27;;;;;;;19.77;12.00;;;;;;;-142.75;100.00;77340.03;5031291;28;20120;-68
2022/03/12 01:22:53;;;;;;;21.85;12.45;;;;;;;-142.75;100.00;77347.91;5030281;28;20390;-68
2022/03/12 01:25:19;;;;;;;22.10;12.68;;;;;;;-142.75;100.00;77345.94;5030534;28;21436;-68
2022/03/12 01:27:44;;;;;;;25.92;13.15;;;;;;;-142.75;100.00;77349.88;5031470;28;20031;-68
2022/03/12 01:30:10;;;;;;;21.10;13.23;;;;;;;-142.75;100.00;77361.69;5031240;28;20013;-68
2022/03/12 01:32:36;;;;;;;23.70;14.13;;;;;;;-142.75;100.00;77357.75;5031183;28;20021;-68
2022/03/12 01:35:04;;;;;;;21.57;12.93;;;;;;;-142.75;100.00;77369.56;5031309;28;20032;-68
2022/03/12 01:37:29;;;;;;;20.83;12.70;;;;;;;-142.75;100.00;77369.56;5029949;28;20024;-68
2022/03/12 01:39:55;;;;;;;21.30;12.95;;;;;;;-142.75;100.00;77367.59;5029688;28;20029;-68
2022/03/12 01:42:22;;;;;;;23.52;12.65;;;;;;;-142.75;100.00;77365.63;5029643;28;20376;-68
2022/03/12 01:44:49;;;;;;;20.43;12.87;;;;;;;-142.75;100.00;77369.56;5031125;28;20025;-68
2022/03/12 01:47:19;;;;;;;19.17;12.07;;;;;;;-142.75;100.00;77369.56;5029795;28;20017;-67
2022/03/12 01:49:51;;;;;;;21.67;12.37;;;;;;;-142.75;100.00;77373.50;5041245;28;20017;-67
2022/03/12 01:52:17;;;;;;;21.70;12.93;;;;;;;-142.75;100.00;77381.38;5036484;28;20053;-67
2022/03/12 01:54:42;;;;;;;22.83;13.50;;;;;;;-142.75;100.00;77395.16;5031130;28;20444;-66
2022/03/12 01:57:09;;;;;;;20.15;11.75;;;;;;;-142.75;100.00;77397.13;5031043;28;20506;-67
2022/03/12 01:59:35;;;;;;;25.97;13.10;;;;;;;-142.75;100.00;77405.00;5029295;28;20434;-67
2022/03/12 02:02:01;;;;;;;20.15;12.13;;;;;;;-142.75;100.00;77410.91;5043973;28;20025;-67
2022/03/12 02:04:29;;;;;;;19.75;11.23;;;;;;;-142.75;100.00;77416.81;5050761;28;20033;-67
2022/03/12 02:06:58;;;;;;;20.37;12.30;;;;;;;-142.75;100.00;77414.84;5050777;28;20060;-67
2022/03/12 02:09:23;;;;;;;19.87;11.83;;;;;;;-142.75;100.00;77420.75;5050492;28;20021;-67
2022/03/12 02:11:50;;;;;;;20.90;11.77;;;;;;;-142.75;100.00;77424.69;5050699;28;20443;-67
2022/03/12 02:14:20;;;;;;;18.87;11.60;;;;;;;-142.75;100.00;77430.59;5050682;28;20051;-67
2022/03/12 02:16:55;;;;;;;21.80;11.60;;;;;;;-142.75;100.00;77424.69;5050590;28;20090;-67
2022/03/12 02:19:22;;;;;;;19.70;11.40;;;;;;;-142.75;100.00;77434.53;5050290;28;20435;-67
2022/03/12 02:21:56;;;;;;;20.93;12.07;;;;;;;-142.75;100.00;77432.56;5050455;28;20406;-67
2022/03/12 02:24:24;;;;;;;22.87;12.43;;;;;;;-142.75;100.00;77432.56;5055169;28;20028;-67
2022/03/12 02:26:51;;;;;;;18.07;11.37;;;;;;;-142.75;100.00;77436.50;5057325;28;20033;-67
2022/03/12 02:29:21;;;;;;;19.73;11.90;;;;;;;-142.75;100.00;77442.41;5056946;28;20055;-66
2022/03/12 02:31:49;;;;;;;21.10;11.87;;;;;;;-142.75;100.00;77444.38;5055804;28;20120;-67
2022/03/12 02:34:20;;;;;;;20.83;12.00;;;;;;;-142.75;100.00;77442.41;5057336;28;20024;-67
2022/03/12 02:36:45;;;;;;;21.37;13.07;;;;;;;-142.75;100.00;77428.63;5057168;28;20037;-68
2022/03/12 02:39:13;;;;;;;19.20;11.52;;;;;;;-142.75;100.00;77428.63;5055480;28;20036;-67
2022/03/12 02:41:38;;;;;;;20.13;11.70;;;;;;;-142.75;100.00;77420.75;5057162;28;20615;-67
2022/03/12 02:44:05;;;;;;;18.10;11.43;;;;;;;-142.75;100.00;77428.63;5057127;28;20050;-68
2022/03/12 02:46:32;;;;;;;19.00;11.03;;;;;;;-142.75;100.00;77430.59;5055120;28;20024;-68
2022/03/12 02:48:58;;;;;;;22.03;12.13;;;;;;;-142.75;100.00;77426.66;5056707;28;20053;-68
2022/03/12 02:51:25;;;;;;;17.65;10.68;;;;;;;-142.75;100.00;77436.50;5056920;28;20479;-67
2022/03/12 02:53:53;;;;;;;17.03;10.20;;;;;;;-142.75;100.00;77422.72;5056937;28;20155;-68
2022/03/12 02:56:19;;;;;;;14.63;10.00;;;;;;;-142.75;100.00;77412.88;5056948;28;20021;-68
2022/03/12 02:58:44;;;;;;;15.45;9.07;;;;;;;-142.75;100.00;77399.09;5056516;28;20542;-68
2022/03/12 03:01:14;;;;;;;13.13;8.63;;;;;;;-142.75;100.00;77389.25;5056856;28;20020;-68
2022/03/12 03:03:46;;;;;;;14.27;8.60;;;;;;;-142.75;100.00;77375.47;5056939;28;20032;-68
2022/03/12 03:06:15;;;;;;;14.60;8.43;;;;;;;-142.75;100.00;77381.38;5035939;28;20029;-68
2022/03/12 03:08:42;;;;;;;12.17;7.63;;;;;;;-142.75;100.00;77383.34;5036687;28;20032;-67
2022/03/12 03:11:16;;;;;;;15.43;7.20;;;;;;;-142.75;100.00;77365.63;5036810;28;20029;-68
2022/03/12 03:13:44;;;;;;;12.30;7.00;;;;;;;-142.75;100.00;77367.59;5035511;28;20032;-67
2022/03/12 03:16:24;;;;;;;10.37;5.90;;;;;;;-142.75;100.00;77361.69;5036770;28;20037;-67
2022/03/12 03:18:53;;;;;;;10.77;5.90;;;;;;;-142.75;100.00;77355.78;5036509;28;20036;-68
2022/03/12 03:21:21;;;;;;;9.57;4.70;;;;;;;-142.75;100.00;77347.91;5036670;28;20021;-67
2022/03/12 03:23:47;;;;;;;8.97;4.97;;;;;;;-142.75;100.00;77343.97;5036767;28;20041;-67
2022/03/12 03:26:18;;;;;;;9.43;5.72;;;;;;;-142.75;100.00;77338.06;5035573;28;20395;-68
2022/03/12 03:28:44;;;;;;;9.03;4.53;;;;;;;-142.75;100.00;77330.19;5036807;28;20025;-67
2022/03/12 03:31:09;;;;;;;7.07;4.50;;;;;;;-142.75;100.00;77326.25;5036405;28;20036;-66
2022/03/12 03:33:35;;;;;;;7.40;4.45;;;;;;;-142.75;100.00;77340.03;5036768;28;20108;-68
2022/03/12 03:36:00;;;;;;;5.55;3.53;;;;;;;-142.75;100.00;77326.25;5031308;28;20025;-68
2022/03/12 03:38:26;;;;;;;7.18;3.60;;;;;;;-142.75;100.00;77340.03;5031987;28;20475;-67
2022/03/12 03:40:51;;;;;;;8.93;4.03;;;;;;;-142.75;100.00;77336.09;5031807;28;20025;-66
2022/03/12 03:43:22;;;;;;;6.55;4.28;;;;;;;-142.75;100.00;77351.84;5032208;28;20487;-68
2022/03/12 03:45:50;;;;;;;7.97;4.10;;;;;;;-142.75;100.00;77349.88;5033462;28;20037;-68
2022/03/12 03:48:18;;;;;;;6.83;3.57;;;;;;;-142.75;100.00;77349.88;5031793;28;20033;-68
2022/03/12 03:50:44;;;;;;;8.37;3.83;;;;;;;-142.75;100.00;77353.81;5033252;28;20386;-67
2022/03/12 03:53:12;;;;;;;6.07;3.80;;;;;;;-142.75;100.00;77359.72;5033255;28;20071;-67
2022/03/12 03:55:38;;;;;;;5.67;3.87;;;;;;;-142.75;100.00;77369.56;5044440;28;20409;-68
2022/03/12 03:58:03;;;;;;;5.80;3.63;;;;;;;-142.75;100.00;77383.34;5052669;28;20020;-68
2022/03/12 04:00:31;;;;;;;7.10;3.78;;;;;;;-142.75;100.00;77381.38;5052855;28;20041;-67
2022/03/12 04:03:04;;;;;;;5.80;3.63;;;;;;;-142.75;100.00;77387.28;5053043;28;20425;-68
2022/03/12 04:05:31;;;;;;;9.53;4.30;;;;;;;-142.75;100.00;77401.06;5052928;28;20581;-68
2022/03/12 04:07:57;;;;;;;6.20;3.33;;;;;;;-142.75;100.00;77408.94;5052519;28;20021;-68
2022/03/12 04:10:23;;;;;;;;;;;;;;;-142.75;100.00;77403.03;5053200;28;20066;-68
2022/03/12 04:12:48;;;;;;;6.07;3.87;;;;;;;-142.75;100.00;77416.81;5051414;28;20332;-68
2022/03/12 04:15:14;;;;;;;8.65;3.78;;;;;;;-142.75;100.00;77420.75;5052799;28;20034;-67
2022/03/12 04:17:41;;;;;;;6.30;3.72;;;;;;;-142.75;100.00;77416.81;5051372;28;20033;-67
2022/03/12 04:20:08;;;;;;;7.23;4.03;;;;;;;-142.75;100.00;77428.63;5052293;28;20056;-66
2022/03/12 04:22:37;;;;;;;7.33;3.73;;;;;;;-142.75;100.00;77428.63;5052536;28;20028;-67
2022/03/12 04:25:02;;;;;;;5.60;3.47;;;;;;;-142.75;100.00;77436.50;5051221;28;20056;-67
2022/03/12 04:27:28;;;;;;;6.30;3.72;;;;;;;-142.75;100.00;77436.50;5052603;28;20057;-67
2022/03/12 04:29:53;;;;;;;6.13;3.88;;;;;;;-142.75;100.00;77434.53;5050918;28;20013;-67
2022/03/12 04:32:19;;;;;;;7.25;3.90;;;;;;;-142.75;100.00;77440.44;5069080;22;20548;-66
2022/03/12 04:34:45;;;;;;;4.70;3.30;;;;;;;-142.75;100.00;77450.28;5011206;28;20299;-66
2022/03/12 04:37:11;;;;;;;5.70;4.05;;;;;;;-142.75;100.00;77446.34;5010965;28;20117;-66
2022/03/12 04:39:36;;;;;;;6.53;3.77;;;;;;;-142.75;100.00;77452.25;5012536;28;20129;-66
2022/03/12 04:42:02;;;;;;;5.28;3.40;;;;;;;-142.75;100.00;77464.09;5012745;28;20647;-66
2022/03/12 04:44:27;;;;;;;4.97;3.40;;;;;;;-142.75;100.00;77452.25;5012624;28;20026;-66
2022/03/12 04:46:52;;;;;;;9.32;3.58;;;;;;;-142.75;100.00;77460.13;5012393;28;20026;-66
2022/03/12 04:49:19;;;;;;;5.90;3.63;;;;;;;-142.75;100.00;77456.22;5011143;28;20025;-67
2022/03/12 04:51:44;;;;;;;;;;;;;;;-142.75;100.00;77458.16;5012221;28;20272;-66
2022/03/12 04:54:09;;;;;;;6.33;2.90;;;;;;;-142.75;100.00;77468.03;5013053;28;19913;-66
2022/03/12 04:56:35;;;;;;;7.05;3.75;;;;;;;-142.75;100.00;77471.97;5013359;28;20534;-66
2022/03/12 04:59:01;;;;;;;6.93;3.70;;;;;;;-142.75;100.00;77471.97;4993188;28;20492;-66
2022/03/12 05:01:28;;;;;;;7.47;3.88;;;;;;;-142.75;100.00;77479.84;4993175;28;20081;-66
2022/03/12 05:03:53;;;;;;;6.60;3.80;;;;;;;-142.75;100.00;77483.78;4993255;28;20032;-66
2022/03/12 05:06:19;;;;;;;5.85;3.80;;;;;;;-142.75;100.00;77477.88;4993108;28;20102;-66
2022/03/12 05:08:45;;;;;;;5.82;3.50;;;;;;;-142.75;100.00;77491.66;5009774;28;20029;-66
2022/03/12 05:11:10;;;;;;;7.32;4.20;;;;;;;-142.75;100.00;77495.59;5012325;28;20494;-66
2022/03/12 05:13:36;;;;;;;7.03;3.80;;;;;;;-142.75;100.00;77501.50;5012048;28;20483;-66
2022/03/12 05:16:07;;;;;;;7.68;3.85;;;;;;;-142.75;100.00;77499.53;5012199;28;20061;-66
2022/03/12 05:18:36;;;;;;;5.73;3.23;;;;;;;-142.75;100.00;77499.53;5011811;28;20053;-66
2022/03/12 05:21:02;;;;;;;5.97;3.80;;;;;;;-142.75;100.00;77505.44;5012034;28;20049;-66
2022/03/12 05:23:27;;;;;;;4.75;3.38;;;;;;;-142.75;100.00;77517.25;5011967;28;20057;-67
2022/03/12 05:25:53;;;;;;;5.32;3.67;;;;;;;-142.75;100.00;77523.16;5011930;28;20021;-66
2022/03/12 05:28:26;;;;;;;6.90;3.92;;;;;;;-142.75;100.00;77523.16;5011770;28;20439;-66
2022/03/12 05:30:56;;;;;;;6.57;3.67;;;;;;;-142.75;100.00;77527.09;5010739;28;20041;-66
2022/03/12 05:33:22;;;;;;;4.90;3.40;;;;;;;-142.75;100.00;77527.09;5011536;28;20045;-66
2022/03/12 05:35:51;;;;;;;;;;;;;;;-142.75;100.00;77531.03;5012212;28;20113;-66
2022/03/12 05:38:17;;;;;;;7.40;3.73;;;;;;;-142.75;100.00;77531.03;5010169;28;19920;-66
2022/03/12 05:40:43;;;;;;;6.23;4.17;;;;;;;-142.75;100.00;77546.78;5010091;28;20109;-66
2022/03/12 05:43:12;;;;;;;6.80;4.43;;;;;;;-142.75;100.00;77542.84;5011712;28;20129;-66
2022/03/12 05:45:38;;;;;;;9.60;4.20;;;;;;;-142.75;100.00;77544.81;5011630;28;20030;-66
2022/03/12 05:48:09;;;;;;;9.47;4.97;;;;;;;-142.75;100.00;77546.78;5011500;28;20388;-66
2022/03/12 05:50:36;;;;;;;6.80;4.50;;;;;;;-142.75;100.00;77542.84;5010482;28;20021;-66
2022/03/12 05:53:02;;;;;;;8.70;4.20;;;;;;;-142.75;100.00;77538.91;5011376;28;20488;-66
2022/03/12 05:55:28;;;;;;;7.82;4.63;;;;;;;-142.75;100.00;77542.84;5011574;28;20060;-66
2022/03/12 05:57:53;;;;;;;7.13;4.13;;;;;;;-142.75;100.00;77544.81;5010785;28;20065;-66
2022/03/12 06:00:19;;;;;;;6.85;4.07;;;;;;;-142.75;100.00;77564.50;5010207;28;20049;-66
2022/03/12 06:02:50;;;;;;;9.20;4.20;;;;;;;-142.75;100.00;77570.41;5011457;28;20108;-66
2022/03/12 06:05:17;;;;;;;5.87;4.13;;;;;;;-142.75;100.00;77568.44;5011656;28;20025;-66
2022/03/12 06:07:45;;;;;;;5.57;3.90;;;;;;;-142.75;100.00;77566.47;5011333;28;20033;-66
2022/03/12 06:10:15;;;;;;;6.90;4.17;;;;;;;-142.75;100.00;77562.53;5011042;28;20042;-66
2022/03/12 06:12:42;;;;;;;5.47;3.87;;;;;;;-142.75;100.00;77558.59;5011280;28;20098;-66
2022/03/12 06:15:08;;;;;;;6.97;4.03;;;;;;;-142.75;100.00;77556.63;5010208;28;20116;-66
2022/03/12 06:17:33;;;;;;;7.60;4.40;;;;;;;-142.75;100.00;77552.69;5011379;28;20022;-66
2022/03/12 06:19:59;;;;;;;6.80;4.38;;;;;;;-142.75;100.00;77554.66;5009720;28;20033;-66
2022/03/12 06:22:24;;;;;;;7.13;3.90;;;;;;;-142.75;100.00;77562.53;5011174;28;20044;-66
2022/03/12 06:24:49;;;;;;;8.25;4.50;;;;;;;-142.75;100.00;77562.53;5011346;28;20030;-66
2022/03/12 06:27:20;;;;;;;7.97;3.90;;;;;;;-142.75;100.00;77560.56;5011314;28;20032;-66
2022/03/12 06:29:46;;;;;;;8.30;4.90;;;;;;;-142.75;100.00;77562.53;5011035;28;20041;-66
2022/03/12 06:32:13;;;;;;;10.23;5.57;;;;;;;-142.75;100.00;77566.47;5011033;28;20479;-66
2022/03/12 06:34:39;;;;;;;7.60;5.17;;;;;;;-142.75;100.00;77566.47;5011394;28;20527;-67
2022/03/12 06:37:04;;;;;;;7.68;4.35;;;;;;;-142.75;100.00;77558.59;5009650;28;20109;-66
2022/03/12 06:39:29;;;;;;;7.25;4.13;;;;;;;-142.75;100.00;77562.53;5011030;28;20022;-66
2022/03/12 06:41:56;;;;;;;9.23;4.30;;;;;;;-142.75;100.00;77568.44;5010876;28;20030;-66
2022/03/12 06:44:22;;;;;;;;;;;;;;;-142.75;100.00;77566.47;5011554;28;20030;-67
2022/03/12 06:46:50;;;;;;;8.53;4.37;;;;;;;-142.75;100.00;77562.53;5011503;28;19913;-67
2022/03/12 06:49:15;;;;;;;7.80;4.47;;;;;;;-142.75;100.00;77566.47;5011318;28;20534;-66
2022/03/12 06:51:42;;;;;;;7.90;4.28;;;;;;;-142.75;100.00;77566.47;5009787;28;20110;-67
2022/03/12 06:54:07;;;;;;;9.13;4.33;;;;;;;-142.75;100.00;77568.44;5011256;28;20060;-67
2022/03/12 06:56:34;;;;;;;7.57;4.75;;;;;;;-142.75;100.00;77562.53;5011156;28;20497;-67
2022/03/12 06:59:00;;;;;;;7.47;4.70;;;;;;;-142.75;100.00;77564.50;5009512;28;20472;-67
2022/03/12 07:01:25;;;;;;;6.72;3.80;;;;;;;-142.75;100.00;77562.53;5010892;28;20037;-67
2022/03/12 07:03:50;;;;;;;8.27;4.38;;;;;;;-142.75;100.00;77562.53;5010568;28;20037;-67
2022/03/12 07:06:16;;;;;;;11.85;4.63;;;;;;;-142.75;100.00;77554.66;5010475;28;20112;-68
2022/03/12 07:08:41;;;;;;;8.75;3.80;;;;;;;-142.75;100.00;77546.78;5010276;28;20028;-67
2022/03/12 07:11:07;;;;;;;8.90;4.17;;;;;;;-142.75;100.00;77538.91;5012978;28;20080;-67
2022/03/12 07:13:34;;;;;;;12.02;5.05;;;;;;;-142.75;100.00;77531.03;5013707;28;20372;-68
2022/03/12 07:16:00;;;;;;;12.57;4.50;;;;;;;-142.75;100.00;77527.09;5014049;28;20113;-68
2022/03/12 07:18:26;;;;;;;;;;;;;;;-142.75;100.00;77536.94;5014074;28;20061;-68
2022/03/12 07:20:52;;;;;;;8.57;4.35;;;;;;;-142.75;100.00;77542.84;5013822;28;19921;-68
2022/03/12 07:23:17;;;;;;;8.43;3.97;;;;;;;-142.75;100.00;77538.91;5013690;28;20125;-67
2022/03/12 07:25:43;;;;;;;7.80;4.40;;;;;;;-142.75;100.00;77548.75;5013877;28;20072;-67
2022/03/12 07:28:10;;;;;;;7.32;4.32;;;;;;;-142.75;100.00;77538.91;5013489;28;20025;-67
2022/03/12 07:30:35;;;;;;;8.77;4.47;;;;;;;-142.75;100.00;77548.75;5014117;28;20076;-67
2022/03/12 07:33:01;;;;;;;7.22;4.00;;;;;;;-142.75;100.00;77536.94;5013313;28;20475;-67
2022/03/12 07:35:26;;;;;;;6.75;4.43;;;;;;;-142.75;100.00;77540.88;5002571;28;20026;-66
2022/03/12 07:37:53;;;;;;;8.65;5.22;;;;;;;-142.75;100.00;77542.84;4993005;28;20034;-67
2022/03/12 07:40:18;;;;;;;9.37;4.50;;;;;;;-142.75;100.00;77544.81;4994482;28;20477;-67
2022/03/12 07:42:46;;;;;;;9.48;4.63;;;;;;;-142.75;100.00;77544.81;5006443;28;20033;-67
2022/03/12 07:45:11;;;;;;;8.33;4.97;;;;;;;-142.75;100.00;77544.81;4991689;28;20076;-67
2022/03/12 07:47:37;;;;;;;10.38;5.63;;;;;;;-142.75;100.00;77554.66;5011413;28;20034;-67
2022/03/12 07:50:05;;;;;;;7.80;4.63;;;;;;;-142.75;100.00;77548.75;5010824;28;20026;-67
2022/03/12 07:52:30;;;;;;;8.90;5.20;;;;;;;-142.75;100.00;77544.81;5008178;28;22064;-67
2022/03/12 07:54:56;;;;;;;10.50;4.82;;;;;;;-142.75;100.00;77538.91;5010942;28;20112;-68
2022/03/12 07:57:26;;;;;;;8.67;4.77;;;;;;;-142.75;100.00;77544.81;5011392;28;20014;-67
2022/03/12 07:59:52;;;;;;;8.33;4.43;;;;;;;-142.75;100.00;77533.00;5010998;28;20375;-67
2022/03/12 08:02:17;;;;;;;7.15;4.95;;;;;;;-142.75;100.00;77523.16;5011218;28;20101;-67
2022/03/12 08:04:43;;;;;;;10.63;5.30;;;;;;;-142.75;100.00;77501.50;5011126;28;20041;-67
2022/03/12 08:07:08;;;;;;;7.35;4.57;;;;;;;-142.75;100.00;77497.56;5010514;28;20269;-68
2022/03/12 08:09:33;;;;;;;8.67;5.47;;;;;;;-142.75;100.00;77481.81;5003644;28;20541;-67
2022/03/12 08:12:00;;;;;;;10.05;4.30;;;;;;;-142.75;100.00;77483.78;4991570;28;20277;-68
2022/03/12 08:14:25;;;;;;;8.07;4.40;;;;;;;-142.75;100.00;77501.50;5009137;28;20423;-68
2022/03/12 08:16:52;;;;;;;9.15;4.78;;;;;;;-142.75;100.00;77479.84;5010842;28;20065;-67
2022/03/12 08:19:18;;;;;;;9.45;4.10;;;;;;;-142.75;100.00;77460.13;4993166;28;20129;-67
2022/03/12 08:21:45;;;;;;;9.30;4.40;;;;;;;-142.75;100.00;77444.38;5008314;28;20025;-67
2022/03/12 08:24:15;;;;;;;6.53;4.10;;;;;;;-142.75;100.00;77471.97;5010813;28;20706;-68
2022/03/12 08:26:42;;;;;;;8.90;4.53;;;;;;;-142.75;100.00;77452.25;5010795;28;20034;-68
2022/03/12 08:29:12;;;;;;;5.27;4.03;;;;;;;-142.75;100.00;77452.25;5010104;28;20167;-68
2022/03/12 08:31:39;;;;;;;8.87;4.90;;;;;;;-142.75;100.00;77442.41;5010926;28;20029;-68
2022/03/12 08:34:05;;;;;;;8.50;4.00;;;;;;;-142.75;100.00;77446.34;5010529;28;20029;-68
2022/03/12 08:36:30;;;;;;;;;;;;;;;-142.75;100.00;77418.78;5013585;28;20399;-67
2022/03/12 08:38:56;;;;;;;10.45;4.95;;;;;;;-142.75;100.00;77416.81;5012495;28;19913;-67
2022/03/12 08:41:22;;;;;;;7.32;4.28;;;;;;;-142.75;100.00;77422.72;4998423;28;20542;-67
2022/03/12 08:43:48;;;;;;;8.50;4.32;;;;;;;-142.75;100.00;77399.09;4991294;28;20060;-68
2022/03/12 08:46:14;;;;;;;7.88;3.90;;;;;;;-142.75;100.00;77383.34;5010033;28;20475;-69
2022/03/12 08:48:40;;;;;;;6.40;3.55;;;;;;;-142.75;100.00;77393.19;5010104;28;20037;-68
2022/03/12 08:51:06;;;;;;;7.82;3.70;;;;;;;-142.75;100.00;77365.63;5009909;28;20028;-68
2022/03/12 08:53:31;;;;;;;7.55;3.70;;;;;;;-142.75;100.00;77389.25;5009214;28;20026;-68
2022/03/12 08:56:00;;;;;;;8.60;3.78;;;;;;;-142.75;100.00;77363.66;5001906;28;20070;-68
2022/03/12 08:58:26;;;;;;;7.68;4.22;;;;;;;-142.75;100.00;77399.09;4990719;28;20026;-68
2022/03/12 09:00:52;;;;;;;8.93;3.70;;;;;;;-142.75;100.00;77375.47;5009029;28;20026;-68
2022/03/12 09:03:19;;;;;;;8.82;4.38;;;;;;;-142.75;100.00;77387.28;5010318;28;20025;-68
2022/03/12 09:05:45;;;;;;;7.63;3.65;;;;;;;-142.75;100.00;77377.44;5010421;28;21678;-69
2022/03/12 09:08:12;;;;;;;;;;;;;;;-142.75;100.00;77412.88;5010881;28;20068;-66
2022/03/12 09:10:38;;;;;;;10.45;3.78;;;;;;;-142.75;100.00;77438.47;4996978;28;19921;-67
2022/03/12 09:13:05;;;;;;;10.77;3.90;;;;;;;-142.75;100.00;77418.78;5009769;28;20033;-67
2022/03/12 09:15:31;;;;;;;5.67;3.70;;;;;;;-142.75;100.00;77416.81;5008842;28;20030;-68
2022/03/12 09:17:56;;;;;;;9.55;4.25;;;;;;;-142.75;100.00;77420.75;5009693;28;20099;-68
2022/03/12 09:20:23;;;;;;;9.07;3.50;;;;;;;-142.75;100.00;77395.16;5009965;28;20034;-68
2022/03/12 09:22:48;;;;;;;;;;;;;;;-142.75;100.00;77365.63;5010408;28;20439;-68
2022/03/12 09:25:14;;;;;;;10.10;3.42;;;;;;;-142.75;100.00;77377.44;5009747;28;19920;-68
2022/03/12 09:27:40;;;;;;;;;;;;;;;-142.75;100.00;77383.34;5009407;28;20033;-67
2022/03/12 09:30:06;;;;;;;8.98;3.85;;;;;;;-142.75;100.00;77406.97;5009846;28;20000;-68
2022/03/12 09:32:31;;;;;;;8.55;3.25;;;;;;;-142.75;100.00;77420.75;5008608;28;20108;-68
2022/03/12 09:34:57;;;;;;;9.00;4.07;;;;;;;-142.75;100.00;77424.69;5010121;28;20121;-66
2022/03/12 09:37:22;;;;;;;8.18;3.92;;;;;;;-142.75;100.00;77418.78;5010096;28;20276;-69
2022/03/12 09:39:48;;;;;;;8.48;3.90;;;;;;;-142.75;100.00;77428.63;5009826;28;20025;-68
2022/03/12 09:42:13;;;;;;;8.98;3.80;;;;;;;-142.75;100.00;77420.75;5002068;28;20030;-68
2022/03/12 09:44:38;;;;;;;8.23;3.55;;;;;;;-142.75;100.00;77418.78;5009751;28;20368;-68
2022/03/12 09:47:04;;;;;;;8.13;2.97;;;;;;;-142.75;100.00;77444.38;5010012;28;20022;-68
2022/03/12 09:49:31;;;;;;;9.70;4.10;;;;;;;-142.75;100.00;77401.06;4996385;28;20404;-67
2022/03/12 09:51:57;;;;;;;6.50;2.90;;;;;;;-142.75;100.00;77385.31;5008404;28;20033;-67
2022/03/12 09:54:23;;;;;;;7.50;3.03;;;;;;;-142.75;100.00;77314.44;5010041;28;20030;-68
2022/03/12 09:56:48;;;;;;;5.18;2.28;;;;;;;-142.75;100.00;77265.22;5009638;28;20421;-68
2022/03/12 09:59:13;;;;;;;6.15;2.75;;;;;;;-142.75;100.00;77273.09;5009736;28;20037;-67
2022/03/12 10:01:38;;;;;;;5.80;2.45;;;;;;;-142.75;100.00;77263.25;5010121;28;20084;-68
2022/03/12 10:04:04;;;;;;;4.90;2.58;;;;;;;-142.75;100.00;77251.44;5009312;28;20607;-68
2022/03/12 10:06:31;;;;;;;5.55;2.58;;;;;;;-142.75;100.00;77239.63;5010075;28;20022;-68
2022/03/12 10:08:56;;;;;;;9.82;2.97;;;;;;;-142.75;100.00;77243.56;5009463;28;20033;-68
2022/03/12 10:11:22;;;;;;;10.88;2.75;;;;;;;-142.75;100.00;77275.06;5009615;28;20033;-68
2022/03/12 10:13:48;;;;;;;8.38;2.83;;;;;;;-142.75;100.00;77253.41;5005767;28;20476;-68
2022/03/12 10:16:14;;;;;;;5.13;2.78;;;;;;;-142.75;100.00;77320.34;5009519;28;20029;-68
2022/03/12 10:18:41;;;;;;;9.20;2.90;;;;;;;-142.75;100.00;77361.69;4999857;28;20018;-67
2022/03/12 10:21:06;;;;;;;5.00;2.30;;;;;;;-142.75;100.00;77365.63;5009134;28;20037;-68
2022/03/12 10:23:33;;;;;;;6.82;2.78;;;;;;;-142.75;100.00;77330.19;5009855;28;20026;-69
2022/03/12 10:25:58;;;;;;;5.05;1.80;;;;;;;-142.75;100.00;77265.22;5009179;28;20030;-68
2022/03/12 10:28:24;;;;;;;8.02;1.88;;;;;;;-142.75;100.00;77212.06;5005450;28;20492;-68
2022/03/12 10:30:49;;;;;;;6.30;2.20;;;;;;;-142.75;100.00;77137.25;4997637;28;20030;-68
2022/03/12 10:33:23;;;;;;;4.88;2.05;;;;;;;-142.75;100.00;77103.78;4990022;28;20471;-68
2022/03/12 10:35:48;;;;;;;8.57;2.97;;;;;;;-142.75;100.00;77153.00;4994840;28;20041;-68
2022/03/12 10:38:14;;;;;;;34.33;16.45;;;;;;;-142.75;100.00;77200.25;5000018;28;20030;-68
2022/03/12 10:40:40;;;;;;;7.90;3.65;;;;;;;-142.75;100.00;77204.19;4998131;28;20014;-68
2022/03/12 10:43:12;;;;;;;;;;;;;;;-142.75;100.00;77253.41;4997567;28;20030;-69
2022/03/12 10:45:46;;;;;;;8.88;2.63;;;;;;;-142.75;100.00;77247.50;4994279;28;19914;-69
2022/03/12 10:48:13;;;;;;;13.00;7.78;;;;;;;-142.75;100.00;77219.94;5010631;28;20088;-68
2022/03/12 10:50:44;;;;;;;8.05;4.00;;;;;;;-142.75;100.00;77186.47;5001251;28;20480;-69
2022/03/12 10:53:10;;;;;;;6.60;3.00;;;;;;;-142.75;100.00;77164.81;5012396;28;20680;-66
2022/03/12 10:55:40;;;;;;;5.90;2.42;;;;;;;-142.75;100.00;77109.69;5013012;28;20033;-66
2022/03/12 10:58:13;;;;;;;7.05;2.40;;;;;;;-142.75;100.00;77066.38;5013071;28;20024;-69
2022/03/12 11:00:41;;;;;;;7.20;2.35;;;;;;;-142.75;100.00;77003.38;5012783;28;20026;-69
2022/03/12 11:03:12;;;;;;;9.20;3.15;;;;;;;-142.75;100.00;77050.63;5013338;28;20036;-69
2022/03/12 11:05:38;;;;;;;9.13;2.55;;;;;;;-142.75;100.00;77007.31;5013272;28;20495;-69